sensor_id;sensor_type;location;lat;lon;timestamp;temperature;humidity
13673;DHT22;6909;52.202;9.876;2023-12-22T00:01:24;5.10;99.90
13673;DHT22;6909;52.202;9.876;2023-12-22T00:03:51;5.10;99.90
13673;DHT22;6909;52.202;9.876;2023-12-22T00:06:19;5.10;99.90
13673;DHT22;6909;52.202;9.876;2023-12-22T00:08:46;5.10;99.90
13673;DHT22;6909;52.202;9.876;2023-12-22T00:11:12;5.10;99.90
13673;DHT22;6909;52.202;9.876;2023-12-22T00:13:39;5.10;99.90
13673;DHT22;6909;52.202;9.876;2023-12-22T00:16:06;5.00;99.90
13673;DHT22;6909;52.202;9.876;2023-12-22T00:18:32;5.00;99.90
13673;DHT22;6909;52.202;9.876;2023-12-22T00:20:59;4.90;99.90
13673;DHT22;6909;52.202;9.876;2023-12-22T00:23:27;4.90;99.90
13673;DHT22;6909;52.202;9.876;2023-12-22T00:25:53;4.80;99.90
13673;DHT22;6909;52.202;9.876;2023-12-22T00:28:20;4.80;99.90
13673;DHT22;6909;52.202;9.876;2023-12-22T00:30:47;4.70;99.90
13673;DHT22;6909;52.202;9.876;2023-12-22T00:33:13;4.60;99.90
13673;DHT22;6909;52.202;9.876;2023-12-22T00:35:41;4.60;99.90
13673;DHT22;6909;52.202;9.876;2023-12-22T00:38:08;4.70;99.90
13673;DHT22;6909;52.202;9.876;2023-12-22T00:40:37;4.70;99.90
13673;DHT22;6909;52.202;9.876;2023-12-22T00:43:03;4.80;99.90
13673;DHT22;6909;52.202;9.876;2023-12-22T00:45:30;4.70;99.90
13673;DHT22;6909;52.202;9.876;2023-12-22T00:47:57;4.70;99.90
13673;DHT22;6909;52.202;9.876;2023-12-22T00:50:24;4.70;99.90
13673;DHT22;6909;52.202;9.876;2023-12-22T00:52:50;4.80;99.90
13673;DHT22;6909;52.202;9.876;2023-12-22T00:55:17;4.90;99.90
13673;DHT22;6909;52.202;9.876;2023-12-22T00:57:45;4.90;99.90
13673;DHT22;6909;52.202;9.876;2023-12-22T01:00:14;5.00;99.90
13673;DHT22;6909;52.202;9.876;2023-12-22T01:02:41;5.00;99.90
13673;DHT22;6909;52.202;9.876;2023-12-22T01:05:08;4.90;99.90
13673;DHT22;6909;52.202;9.876;2023-12-22T01:07:34;4.80;99.90
13673;DHT22;6909;52.202;9.876;2023-12-22T01:10:01;4.80;99.90
13673;DHT22;6909;52.202;9.876;2023-12-22T01:12:29;4.80;99.90
13673;DHT22;6909;52.202;9.876;2023-12-22T01:14:57;4.90;99.90
13673;DHT22;6909;52.202;9.876;2023-12-22T01:17:24;4.90;99.90
13673;DHT22;6909;52.202;9.876;2023-12-22T01:19:50;4.90;99.90
13673;DHT22;6909;52.202;9.876;2023-12-22T01:22:17;5.00;99.90
13673;DHT22;6909;52.202;9.876;2023-12-22T01:24:44;5.00;99.90
13673;DHT22;6909;52.202;9.876;2023-12-22T01:27:11;4.90;99.90
13673;DHT22;6909;52.202;9.876;2023-12-22T01:29:38;5.00;99.90
13673;DHT22;6909;52.202;9.876;2023-12-22T01:32:06;5.00;99.90
13673;DHT22;6909;52.202;9.876;2023-12-22T01:34:33;4.90;99.90
13673;DHT22;6909;52.202;9.876;2023-12-22T01:36:59;4.90;99.90
13673;DHT22;6909;52.202;9.876;2023-12-22T01:39:26;5.00;99.90
13673;DHT22;6909;52.202;9.876;2023-12-22T01:41:53;5.00;99.90
13673;DHT22;6909;52.202;9.876;2023-12-22T01:44:19;5.00;99.90
13673;DHT22;6909;52.202;9.876;2023-12-22T01:46:46;5.10;99.90
13673;DHT22;6909;52.202;9.876;2023-12-22T01:49:14;5.10;99.90
13673;DHT22;6909;52.202;9.876;2023-12-22T01:51:42;5.10;99.90
13673;DHT22;6909;52.202;9.876;2023-12-22T01:54:09;5.00;99.90
13673;DHT22;6909;52.202;9.876;2023-12-22T01:56:36;4.90;99.90
13673;DHT22;6909;52.202;9.876;2023-12-22T01:59:03;5.00;99.90
13673;DHT22;6909;52.202;9.876;2023-12-22T02:01:31;4.90;99.90
13673;DHT22;6909;52.202;9.876;2023-12-22T02:03:59;5.00;99.90
13673;DHT22;6909;52.202;9.876;2023-12-22T02:06:27;5.00;99.90
13673;DHT22;6909;52.202;9.876;2023-12-22T02:09:00;5.00;99.90
13673;DHT22;6909;52.202;9.876;2023-12-22T02:11:27;4.90;99.90
13673;DHT22;6909;52.202;9.876;2023-12-22T02:13:53;4.90;99.90
13673;DHT22;6909;52.202;9.876;2023-12-22T02:16:24;4.90;99.90
13673;DHT22;6909;52.202;9.876;2023-12-22T02:22:15;4.90;99.90
13673;DHT22;6909;52.202;9.876;2023-12-22T02:24:43;4.90;99.90
13673;DHT22;6909;52.202;9.876;2023-12-22T02:27:21;4.90;99.90
13673;DHT22;6909;52.202;9.876;2023-12-22T02:29:52;5.00;99.90
13673;DHT22;6909;52.202;9.876;2023-12-22T02:32:23;4.90;99.90
13673;DHT22;6909;52.202;9.876;2023-12-22T02:34:52;4.90;99.90
13673;DHT22;6909;52.202;9.876;2023-12-22T02:37:20;4.80;99.90
13673;DHT22;6909;52.202;9.876;2023-12-22T02:39:49;4.60;99.90
13673;DHT22;6909;52.202;9.876;2023-12-22T02:42:17;4.50;99.90
13673;DHT22;6909;52.202;9.876;2023-12-22T02:44:45;4.50;99.90
13673;DHT22;6909;52.202;9.876;2023-12-22T02:47:11;4.50;99.90
13673;DHT22;6909;52.202;9.876;2023-12-22T02:49:38;4.50;99.90
13673;DHT22;6909;52.202;9.876;2023-12-22T02:52:05;4.50;99.90
13673;DHT22;6909;52.202;9.876;2023-12-22T02:54:32;4.50;99.90
13673;DHT22;6909;52.202;9.876;2023-12-22T02:57:00;4.50;99.90
13673;DHT22;6909;52.202;9.876;2023-12-22T02:59:26;4.50;99.90
13673;DHT22;6909;52.202;9.876;2023-12-22T03:01:54;4.60;99.90
13673;DHT22;6909;52.202;9.876;2023-12-22T03:04:19;4.60;99.90
13673;DHT22;6909;52.202;9.876;2023-12-22T03:06:46;4.70;99.90
13673;DHT22;6909;52.202;9.876;2023-12-22T03:09:12;4.60;99.90
13673;DHT22;6909;52.202;9.876;2023-12-22T03:11:39;4.70;99.90
13673;DHT22;6909;52.202;9.876;2023-12-22T03:14:07;4.70;99.90
13673;DHT22;6909;52.202;9.876;2023-12-22T03:16:34;4.70;99.90
13673;DHT22;6909;52.202;9.876;2023-12-22T03:19:00;4.60;99.90
13673;DHT22;6909;52.202;9.876;2023-12-22T03:21:27;4.70;99.90
13673;DHT22;6909;52.202;9.876;2023-12-22T03:23:53;4.60;99.90
13673;DHT22;6909;52.202;9.876;2023-12-22T03:26:20;4.60;99.90
13673;DHT22;6909;52.202;9.876;2023-12-22T03:28:46;4.60;99.90
13673;DHT22;6909;52.202;9.876;2023-12-22T03:31:14;4.80;99.90
13673;DHT22;6909;52.202;9.876;2023-12-22T03:33:41;4.70;99.90
13673;DHT22;6909;52.202;9.876;2023-12-22T03:36:08;4.70;99.90
13673;DHT22;6909;52.202;9.876;2023-12-22T03:38:34;4.80;99.90
13673;DHT22;6909;52.202;9.876;2023-12-22T03:41:01;4.80;99.90
13673;DHT22;6909;52.202;9.876;2023-12-22T03:43:27;4.80;99.90
13673;DHT22;6909;52.202;9.876;2023-12-22T03:45:54;4.70;99.90
13673;DHT22;6909;52.202;9.876;2023-12-22T03:48:22;4.70;99.90
13673;DHT22;6909;52.202;9.876;2023-12-22T03:50:48;4.70;99.90
13673;DHT22;6909;52.202;9.876;2023-12-22T03:53:15;4.70;99.90
13673;DHT22;6909;52.202;9.876;2023-12-22T03:55:42;4.60;99.90
13673;DHT22;6909;52.202;9.876;2023-12-22T03:58:08;4.60;99.90
13673;DHT22;6909;52.202;9.876;2023-12-22T04:00:35;4.70;99.90
13673;DHT22;6909;52.202;9.876;2023-12-22T04:03:02;4.70;99.90
13673;DHT22;6909;52.202;9.876;2023-12-22T04:05:31;4.70;99.90
13673;DHT22;6909;52.202;9.876;2023-12-22T04:07:57;4.80;99.90
13673;DHT22;6909;52.202;9.876;2023-12-22T04:10:24;4.80;99.90
13673;DHT22;6909;52.202;9.876;2023-12-22T04:12:50;4.70;99.90
13673;DHT22;6909;52.202;9.876;2023-12-22T04:15:17;4.60;99.90
13673;DHT22;6909;52.202;9.876;2023-12-22T04:17:44;4.50;99.90
13673;DHT22;6909;52.202;9.876;2023-12-22T04:20:11;4.50;99.90
13673;DHT22;6909;52.202;9.876;2023-12-22T04:22:39;4.60;99.90
13673;DHT22;6909;52.202;9.876;2023-12-22T04:25:06;4.70;99.90
13673;DHT22;6909;52.202;9.876;2023-12-22T04:27:33;4.80;99.90
13673;DHT22;6909;52.202;9.876;2023-12-22T04:30:00;4.70;99.90
13673;DHT22;6909;52.202;9.876;2023-12-22T04:32:26;4.70;99.90
13673;DHT22;6909;52.202;9.876;2023-12-22T04:34:53;4.80;99.90
13673;DHT22;6909;52.202;9.876;2023-12-22T04:37:20;4.80;99.90
13673;DHT22;6909;52.202;9.876;2023-12-22T04:39:48;4.90;99.90
13673;DHT22;6909;52.202;9.876;2023-12-22T04:42:14;4.90;99.90
13673;DHT22;6909;52.202;9.876;2023-12-22T04:44:41;5.00;99.90
13673;DHT22;6909;52.202;9.876;2023-12-22T04:47:07;5.00;99.90
13673;DHT22;6909;52.202;9.876;2023-12-22T04:49:34;5.00;99.90
13673;DHT22;6909;52.202;9.876;2023-12-22T04:52:01;5.00;99.90
13673;DHT22;6909;52.202;9.876;2023-12-22T04:54:27;5.00;99.90
13673;DHT22;6909;52.202;9.876;2023-12-22T04:56:55;5.00;99.90
13673;DHT22;6909;52.202;9.876;2023-12-22T04:59:22;5.00;99.90
13673;DHT22;6909;52.202;9.876;2023-12-22T05:01:49;5.10;99.90
13673;DHT22;6909;52.202;9.876;2023-12-22T05:04:15;5.10;99.90
13673;DHT22;6909;52.202;9.876;2023-12-22T05:06:43;5.20;99.90
13673;DHT22;6909;52.202;9.876;2023-12-22T05:09:14;5.20;99.90
13673;DHT22;6909;52.202;9.876;2023-12-22T05:11:40;5.20;99.90
13673;DHT22;6909;52.202;9.876;2023-12-22T05:14:09;5.20;99.90
13673;DHT22;6909;52.202;9.876;2023-12-22T05:16:36;5.20;99.90
13673;DHT22;6909;52.202;9.876;2023-12-22T05:19:03;5.10;99.90
13673;DHT22;6909;52.202;9.876;2023-12-22T05:21:29;5.00;99.90
13673;DHT22;6909;52.202;9.876;2023-12-22T05:23:56;5.10;99.90
13673;DHT22;6909;52.202;9.876;2023-12-22T05:26:24;5.00;99.90
13673;DHT22;6909;52.202;9.876;2023-12-22T05:28:55;4.80;99.90
13673;DHT22;6909;52.202;9.876;2023-12-22T05:31:23;4.70;99.90
13673;DHT22;6909;52.202;9.876;2023-12-22T05:33:50;4.60;99.90
13673;DHT22;6909;52.202;9.876;2023-12-22T05:36:17;4.70;99.90
13673;DHT22;6909;52.202;9.876;2023-12-22T05:38:43;4.80;99.90
13673;DHT22;6909;52.202;9.876;2023-12-22T05:41:12;4.80;99.90
13673;DHT22;6909;52.202;9.876;2023-12-22T05:43:39;4.80;99.90
13673;DHT22;6909;52.202;9.876;2023-12-22T05:46:06;4.80;99.90
13673;DHT22;6909;52.202;9.876;2023-12-22T05:48:35;4.80;99.90
13673;DHT22;6909;52.202;9.876;2023-12-22T05:51:02;4.80;99.90
13673;DHT22;6909;52.202;9.876;2023-12-22T05:53:32;4.90;99.90
13673;DHT22;6909;52.202;9.876;2023-12-22T05:55:59;4.90;99.90
13673;DHT22;6909;52.202;9.876;2023-12-22T05:58:26;4.90;99.90
13673;DHT22;6909;52.202;9.876;2023-12-22T06:00:52;5.00;99.90
13673;DHT22;6909;52.202;9.876;2023-12-22T06:03:19;5.00;99.90
13673;DHT22;6909;52.202;9.876;2023-12-22T06:05:47;4.90;99.90
13673;DHT22;6909;52.202;9.876;2023-12-22T06:08:14;5.00;99.90
13673;DHT22;6909;52.202;9.876;2023-12-22T06:10:40;4.90;99.90
13673;DHT22;6909;52.202;9.876;2023-12-22T06:13:07;5.00;99.90
13673;DHT22;6909;52.202;9.876;2023-12-22T06:15:35;5.00;99.90
13673;DHT22;6909;52.202;9.876;2023-12-22T06:18:03;5.00;99.90
13673;DHT22;6909;52.202;9.876;2023-12-22T06:20:29;5.00;99.90
13673;DHT22;6909;52.202;9.876;2023-12-22T06:22:57;5.00;99.90
13673;DHT22;6909;52.202;9.876;2023-12-22T06:25:24;5.00;99.90
13673;DHT22;6909;52.202;9.876;2023-12-22T06:27:51;5.00;99.90
13673;DHT22;6909;52.202;9.876;2023-12-22T06:30:17;5.00;99.90
13673;DHT22;6909;52.202;9.876;2023-12-22T06:32:44;4.80;99.90
13673;DHT22;6909;52.202;9.876;2023-12-22T06:35:11;4.60;99.90
13673;DHT22;6909;52.202;9.876;2023-12-22T06:37:37;4.40;99.90
13673;DHT22;6909;52.202;9.876;2023-12-22T06:40:06;4.30;99.90
13673;DHT22;6909;52.202;9.876;2023-12-22T06:42:33;4.20;99.90
13673;DHT22;6909;52.202;9.876;2023-12-22T06:44:59;3.90;99.90
13673;DHT22;6909;52.202;9.876;2023-12-22T06:47:26;3.20;99.90
13673;DHT22;6909;52.202;9.876;2023-12-22T06:49:53;3.10;99.90
13673;DHT22;6909;52.202;9.876;2023-12-22T06:52:20;2.80;99.90
13673;DHT22;6909;52.202;9.876;2023-12-22T06:54:46;2.40;99.90
13673;DHT22;6909;52.202;9.876;2023-12-22T06:57:14;2.00;99.90
13673;DHT22;6909;52.202;9.876;2023-12-22T06:59:42;1.80;99.90
13673;DHT22;6909;52.202;9.876;2023-12-22T07:02:08;1.80;99.90
13673;DHT22;6909;52.202;9.876;2023-12-22T07:04:35;2.00;99.90
13673;DHT22;6909;52.202;9.876;2023-12-22T07:07:02;1.90;99.90
13673;DHT22;6909;52.202;9.876;2023-12-22T07:09:31;2.00;99.90
13673;DHT22;6909;52.202;9.876;2023-12-22T07:11:58;1.90;99.90
13673;DHT22;6909;52.202;9.876;2023-12-22T07:14:25;1.70;99.90
13673;DHT22;6909;52.202;9.876;2023-12-22T07:16:52;1.70;99.90
13673;DHT22;6909;52.202;9.876;2023-12-22T07:19:18;1.80;99.90
13673;DHT22;6909;52.202;9.876;2023-12-22T07:21:45;1.90;99.90
13673;DHT22;6909;52.202;9.876;2023-12-22T07:24:12;2.10;99.90
13673;DHT22;6909;52.202;9.876;2023-12-22T07:26:38;2.20;99.90
13673;DHT22;6909;52.202;9.876;2023-12-22T07:29:05;2.30;99.90
13673;DHT22;6909;52.202;9.876;2023-12-22T07:31:33;2.50;99.90
13673;DHT22;6909;52.202;9.876;2023-12-22T07:34:00;2.90;99.90
13673;DHT22;6909;52.202;9.876;2023-12-22T07:36:26;3.10;99.90
13673;DHT22;6909;52.202;9.876;2023-12-22T07:38:53;3.30;99.90
13673;DHT22;6909;52.202;9.876;2023-12-22T07:41:22;3.40;99.90
13673;DHT22;6909;52.202;9.876;2023-12-22T07:43:49;3.50;99.90
13673;DHT22;6909;52.202;9.876;2023-12-22T07:46:19;3.60;99.90
13673;DHT22;6909;52.202;9.876;2023-12-22T07:48:47;3.70;99.90
13673;DHT22;6909;52.202;9.876;2023-12-22T07:51:14;3.90;99.90
13673;DHT22;6909;52.202;9.876;2023-12-22T07:53:41;4.20;99.90
13673;DHT22;6909;52.202;9.876;2023-12-22T07:56:08;4.20;99.90
13673;DHT22;6909;52.202;9.876;2023-12-22T07:58:36;4.30;99.90
13673;DHT22;6909;52.202;9.876;2023-12-22T08:01:03;4.40;99.90
13673;DHT22;6909;52.202;9.876;2023-12-22T08:03:30;4.50;99.90
13673;DHT22;6909;52.202;9.876;2023-12-22T08:05:58;4.50;99.90
13673;DHT22;6909;52.202;9.876;2023-12-22T08:08:25;4.60;99.90
13673;DHT22;6909;52.202;9.876;2023-12-22T08:10:52;4.50;99.90
13673;DHT22;6909;52.202;9.876;2023-12-22T08:13:18;4.50;99.90
13673;DHT22;6909;52.202;9.876;2023-12-22T08:15:47;4.80;99.90
13673;DHT22;6909;52.202;9.876;2023-12-22T08:18:14;5.00;99.90
13673;DHT22;6909;52.202;9.876;2023-12-22T08:20:41;5.20;99.90
13673;DHT22;6909;52.202;9.876;2023-12-22T08:23:09;5.30;99.90
13673;DHT22;6909;52.202;9.876;2023-12-22T08:25:37;5.30;99.90
13673;DHT22;6909;52.202;9.876;2023-12-22T08:28:04;5.20;99.90
13673;DHT22;6909;52.202;9.876;2023-12-22T08:30:31;5.10;99.90
13673;DHT22;6909;52.202;9.876;2023-12-22T08:32:59;5.00;99.90
13673;DHT22;6909;52.202;9.876;2023-12-22T08:35:25;5.10;99.90
13673;DHT22;6909;52.202;9.876;2023-12-22T08:37:52;5.50;99.90
13673;DHT22;6909;52.202;9.876;2023-12-22T08:40:20;5.80;99.90
13673;DHT22;6909;52.202;9.876;2023-12-22T08:42:51;5.90;99.90
13673;DHT22;6909;52.202;9.876;2023-12-22T08:45:20;6.00;99.90
13673;DHT22;6909;52.202;9.876;2023-12-22T08:47:46;5.80;99.90
13673;DHT22;6909;52.202;9.876;2023-12-22T08:50:13;5.80;99.90
13673;DHT22;6909;52.202;9.876;2023-12-22T08:52:40;5.80;99.90
13673;DHT22;6909;52.202;9.876;2023-12-22T08:55:07;5.90;99.90
13673;DHT22;6909;52.202;9.876;2023-12-22T08:57:35;6.00;99.90
13673;DHT22;6909;52.202;9.876;2023-12-22T09:00:02;5.90;99.90
13673;DHT22;6909;52.202;9.876;2023-12-22T09:02:29;5.80;99.90
13673;DHT22;6909;52.202;9.876;2023-12-22T09:04:56;5.90;99.90
13673;DHT22;6909;52.202;9.876;2023-12-22T09:07:22;6.00;99.90
13673;DHT22;6909;52.202;9.876;2023-12-22T09:09:50;6.00;99.90
13673;DHT22;6909;52.202;9.876;2023-12-22T09:12:16;6.00;99.90
13673;DHT22;6909;52.202;9.876;2023-12-22T09:14:44;6.10;99.90
13673;DHT22;6909;52.202;9.876;2023-12-22T09:17:11;6.00;99.90
13673;DHT22;6909;52.202;9.876;2023-12-22T09:19:38;5.90;99.90
13673;DHT22;6909;52.202;9.876;2023-12-22T09:22:04;5.90;99.90
13673;DHT22;6909;52.202;9.876;2023-12-22T09:24:31;6.20;99.90
13673;DHT22;6909;52.202;9.876;2023-12-22T09:26:58;6.20;99.90
13673;DHT22;6909;52.202;9.876;2023-12-22T09:29:28;6.20;99.90
13673;DHT22;6909;52.202;9.876;2023-12-22T09:31:56;6.30;99.90
13673;DHT22;6909;52.202;9.876;2023-12-22T09:34:22;6.40;99.90
13673;DHT22;6909;52.202;9.876;2023-12-22T09:36:52;6.50;99.90
13673;DHT22;6909;52.202;9.876;2023-12-22T09:39:18;6.80;99.90
13673;DHT22;6909;52.202;9.876;2023-12-22T09:41:48;6.80;99.90
13673;DHT22;6909;52.202;9.876;2023-12-22T09:44:18;6.60;99.90
13673;DHT22;6909;52.202;9.876;2023-12-22T09:46:49;6.40;99.90
13673;DHT22;6909;52.202;9.876;2023-12-22T09:49:18;6.40;99.90
13673;DHT22;6909;52.202;9.876;2023-12-22T09:51:46;6.10;99.90
13673;DHT22;6909;52.202;9.876;2023-12-22T09:54:13;5.90;99.90
13673;DHT22;6909;52.202;9.876;2023-12-22T09:56:41;5.90;99.90
13673;DHT22;6909;52.202;9.876;2023-12-22T09:59:10;5.90;99.90
13673;DHT22;6909;52.202;9.876;2023-12-22T10:01:40;5.90;99.90
13673;DHT22;6909;52.202;9.876;2023-12-22T10:04:09;5.90;99.90
13673;DHT22;6909;52.202;9.876;2023-12-22T10:06:37;5.90;99.90
13673;DHT22;6909;52.202;9.876;2023-12-22T10:09:04;5.80;99.90
13673;DHT22;6909;52.202;9.876;2023-12-22T10:11:33;5.80;99.90
13673;DHT22;6909;52.202;9.876;2023-12-22T10:14:02;5.80;99.90
13673;DHT22;6909;52.202;9.876;2023-12-22T10:16:29;5.80;99.90
13673;DHT22;6909;52.202;9.876;2023-12-22T10:18:57;5.80;99.90
13673;DHT22;6909;52.202;9.876;2023-12-22T10:21:25;5.90;99.90
13673;DHT22;6909;52.202;9.876;2023-12-22T10:23:56;5.90;99.90
13673;DHT22;6909;52.202;9.876;2023-12-22T10:26:22;5.90;99.90
13673;DHT22;6909;52.202;9.876;2023-12-22T10:28:48;5.90;99.90
13673;DHT22;6909;52.202;9.876;2023-12-22T10:31:15;5.80;99.90
13673;DHT22;6909;52.202;9.876;2023-12-22T10:33:43;5.80;99.90
13673;DHT22;6909;52.202;9.876;2023-12-22T10:36:10;5.70;99.90
13673;DHT22;6909;52.202;9.876;2023-12-22T10:38:36;5.80;99.90
13673;DHT22;6909;52.202;9.876;2023-12-22T10:41:06;5.80;99.90
13673;DHT22;6909;52.202;9.876;2023-12-22T10:43:37;5.90;99.90
13673;DHT22;6909;52.202;9.876;2023-12-22T10:46:04;5.90;99.90
13673;DHT22;6909;52.202;9.876;2023-12-22T10:48:31;5.90;99.90
13673;DHT22;6909;52.202;9.876;2023-12-22T10:50:58;5.90;99.90
13673;DHT22;6909;52.202;9.876;2023-12-22T10:53:24;6.00;99.90
13673;DHT22;6909;52.202;9.876;2023-12-22T10:55:52;6.00;99.90
13673;DHT22;6909;52.202;9.876;2023-12-22T10:58:21;6.10;99.90
13673;DHT22;6909;52.202;9.876;2023-12-22T11:00:51;6.10;99.90
13673;DHT22;6909;52.202;9.876;2023-12-22T11:03:23;6.20;99.90
13673;DHT22;6909;52.202;9.876;2023-12-22T11:05:51;6.30;99.90
13673;DHT22;6909;52.202;9.876;2023-12-22T11:08:21;6.40;99.90
13673;DHT22;6909;52.202;9.876;2023-12-22T11:10:53;6.40;99.90
13673;DHT22;6909;52.202;9.876;2023-12-22T11:13:24;6.40;99.90
13673;DHT22;6909;52.202;9.876;2023-12-22T11:15:52;6.50;99.90
13673;DHT22;6909;52.202;9.876;2023-12-22T11:18:20;6.60;99.90
13673;DHT22;6909;52.202;9.876;2023-12-22T11:20:48;6.60;99.90
13673;DHT22;6909;52.202;9.876;2023-12-22T11:23:17;6.60;99.90
13673;DHT22;6909;52.202;9.876;2023-12-22T11:25:48;6.60;99.90
13673;DHT22;6909;52.202;9.876;2023-12-22T11:28:19;6.50;99.90
13673;DHT22;6909;52.202;9.876;2023-12-22T11:30:49;6.60;99.90
13673;DHT22;6909;52.202;9.876;2023-12-22T11:33:18;6.80;99.90
13673;DHT22;6909;52.202;9.876;2023-12-22T11:35:46;6.80;99.90
13673;DHT22;6909;52.202;9.876;2023-12-22T11:38:13;6.80;99.90
13673;DHT22;6909;52.202;9.876;2023-12-22T11:40:40;6.90;99.90
13673;DHT22;6909;52.202;9.876;2023-12-22T11:43:07;6.80;99.90
13673;DHT22;6909;52.202;9.876;2023-12-22T11:45:35;6.90;99.90
13673;DHT22;6909;52.202;9.876;2023-12-22T11:48:08;6.90;99.90
13673;DHT22;6909;52.202;9.876;2023-12-22T11:50:35;6.90;99.90
13673;DHT22;6909;52.202;9.876;2023-12-22T11:53:21;6.90;99.90
13673;DHT22;6909;52.202;9.876;2023-12-22T11:55:59;6.90;99.90
13673;DHT22;6909;52.202;9.876;2023-12-22T11:58:36;7.00;99.90
13673;DHT22;6909;52.202;9.876;2023-12-22T12:01:05;7.00;99.90
13673;DHT22;6909;52.202;9.876;2023-12-22T12:03:36;7.00;99.90
13673;DHT22;6909;52.202;9.876;2023-12-22T12:06:17;7.00;99.90
13673;DHT22;6909;52.202;9.876;2023-12-22T12:08:47;7.00;99.90
13673;DHT22;6909;52.202;9.876;2023-12-22T12:11:16;7.00;99.90
13673;DHT22;6909;52.202;9.876;2023-12-22T12:13:44;6.90;99.90
13673;DHT22;6909;52.202;9.876;2023-12-22T12:16:12;6.90;99.90
13673;DHT22;6909;52.202;9.876;2023-12-22T12:18:40;6.90;99.90
13673;DHT22;6909;52.202;9.876;2023-12-22T12:21:08;6.90;99.90
13673;DHT22;6909;52.202;9.876;2023-12-22T12:23:36;6.90;99.90
13673;DHT22;6909;52.202;9.876;2023-12-22T12:26:05;6.90;99.90
13673;DHT22;6909;52.202;9.876;2023-12-22T12:28:34;6.90;99.90
13673;DHT22;6909;52.202;9.876;2023-12-22T12:31:03;6.90;99.90
13673;DHT22;6909;52.202;9.876;2023-12-22T12:33:31;6.90;99.90
13673;DHT22;6909;52.202;9.876;2023-12-22T12:36:03;6.90;99.90
13673;DHT22;6909;52.202;9.876;2023-12-22T12:38:40;6.90;99.90
13673;DHT22;6909;52.202;9.876;2023-12-22T12:41:09;7.00;99.90
13673;DHT22;6909;52.202;9.876;2023-12-22T12:43:41;7.00;99.90
13673;DHT22;6909;52.202;9.876;2023-12-22T12:46:08;6.90;99.90
13673;DHT22;6909;52.202;9.876;2023-12-22T12:48:35;6.90;99.90
13673;DHT22;6909;52.202;9.876;2023-12-22T12:51:04;7.00;99.90
13673;DHT22;6909;52.202;9.876;2023-12-22T12:53:31;7.00;99.90
13673;DHT22;6909;52.202;9.876;2023-12-22T12:56:00;7.00;99.90
13673;DHT22;6909;52.202;9.876;2023-12-22T12:58:28;7.00;99.90
13673;DHT22;6909;52.202;9.876;2023-12-22T13:01:04;6.90;99.90
13673;DHT22;6909;52.202;9.876;2023-12-22T13:03:31;7.00;99.90
13673;DHT22;6909;52.202;9.876;2023-12-22T13:06:07;7.00;99.90
13673;DHT22;6909;52.202;9.876;2023-12-22T13:08:34;7.00;99.90
13673;DHT22;6909;52.202;9.876;2023-12-22T13:11:06;6.90;99.90
13673;DHT22;6909;52.202;9.876;2023-12-22T13:13:41;6.90;99.90
13673;DHT22;6909;52.202;9.876;2023-12-22T13:16:08;6.90;99.90
13673;DHT22;6909;52.202;9.876;2023-12-22T13:18:36;6.80;99.90
13673;DHT22;6909;52.202;9.876;2023-12-22T13:21:04;6.80;99.90
13673;DHT22;6909;52.202;9.876;2023-12-22T13:23:35;6.90;99.90
13673;DHT22;6909;52.202;9.876;2023-12-22T13:26:02;6.90;99.90
13673;DHT22;6909;52.202;9.876;2023-12-22T13:28:29;6.90;99.90
13673;DHT22;6909;52.202;9.876;2023-12-22T13:30:56;6.90;99.90
13673;DHT22;6909;52.202;9.876;2023-12-22T13:33:23;6.80;99.90
13673;DHT22;6909;52.202;9.876;2023-12-22T13:35:56;6.80;99.90
13673;DHT22;6909;52.202;9.876;2023-12-22T13:38:24;6.90;99.90
13673;DHT22;6909;52.202;9.876;2023-12-22T13:40:52;6.90;99.90
13673;DHT22;6909;52.202;9.876;2023-12-22T13:43:19;6.90;99.90
13673;DHT22;6909;52.202;9.876;2023-12-22T13:45:49;6.90;99.90
13673;DHT22;6909;52.202;9.876;2023-12-22T13:48:17;6.80;99.90
13673;DHT22;6909;52.202;9.876;2023-12-22T13:50:55;6.80;99.90
13673;DHT22;6909;52.202;9.876;2023-12-22T13:53:23;6.80;99.90
13673;DHT22;6909;52.202;9.876;2023-12-22T13:55:55;6.80;99.90
13673;DHT22;6909;52.202;9.876;2023-12-22T13:58:22;6.80;99.90
13673;DHT22;6909;52.202;9.876;2023-12-22T14:00:49;6.80;99.90
13673;DHT22;6909;52.202;9.876;2023-12-22T14:03:16;6.70;99.90
13673;DHT22;6909;52.202;9.876;2023-12-22T14:05:47;6.70;99.90
13673;DHT22;6909;52.202;9.876;2023-12-22T14:08:14;6.70;99.90
13673;DHT22;6909;52.202;9.876;2023-12-22T14:10:45;6.70;99.90
13673;DHT22;6909;52.202;9.876;2023-12-22T14:13:13;6.70;99.90
13673;DHT22;6909;52.202;9.876;2023-12-22T14:15:41;6.60;99.90
13673;DHT22;6909;52.202;9.876;2023-12-22T14:18:09;6.70;99.90
13673;DHT22;6909;52.202;9.876;2023-12-22T14:20:36;6.60;99.90
13673;DHT22;6909;52.202;9.876;2023-12-22T14:23:03;6.60;99.90
13673;DHT22;6909;52.202;9.876;2023-12-22T14:25:32;6.60;99.90
13673;DHT22;6909;52.202;9.876;2023-12-22T14:27:59;6.60;99.90
13673;DHT22;6909;52.202;9.876;2023-12-22T14:30:28;6.60;99.90
13673;DHT22;6909;52.202;9.876;2023-12-22T14:32:55;6.60;99.90
13673;DHT22;6909;52.202;9.876;2023-12-22T14:35:22;6.60;99.90
13673;DHT22;6909;52.202;9.876;2023-12-22T14:37:49;6.60;99.90
13673;DHT22;6909;52.202;9.876;2023-12-22T14:40:17;6.60;99.90
13673;DHT22;6909;52.202;9.876;2023-12-22T14:42:45;6.60;99.90
13673;DHT22;6909;52.202;9.876;2023-12-22T14:45:12;6.60;99.90
13673;DHT22;6909;52.202;9.876;2023-12-22T14:47:41;6.60;99.90
13673;DHT22;6909;52.202;9.876;2023-12-22T14:50:08;6.50;99.90
13673;DHT22;6909;52.202;9.876;2023-12-22T14:52:35;6.50;99.90
13673;DHT22;6909;52.202;9.876;2023-12-22T14:55:02;6.50;99.90
13673;DHT22;6909;52.202;9.876;2023-12-22T14:57:29;6.50;99.90
13673;DHT22;6909;52.202;9.876;2023-12-22T14:59:56;6.50;99.90
13673;DHT22;6909;52.202;9.876;2023-12-22T15:02:23;6.50;99.90
13673;DHT22;6909;52.202;9.876;2023-12-22T15:04:51;6.50;99.90
13673;DHT22;6909;52.202;9.876;2023-12-22T15:07:18;6.60;99.90
13673;DHT22;6909;52.202;9.876;2023-12-22T15:09:45;6.50;99.90
13673;DHT22;6909;52.202;9.876;2023-12-22T15:12:14;6.60;99.90
13673;DHT22;6909;52.202;9.876;2023-12-22T15:14:43;6.60;99.90
13673;DHT22;6909;52.202;9.876;2023-12-22T15:17:10;6.60;99.90
13673;DHT22;6909;52.202;9.876;2023-12-22T15:19:39;6.60;99.90
13673;DHT22;6909;52.202;9.876;2023-12-22T15:22:08;6.60;99.90
13673;DHT22;6909;52.202;9.876;2023-12-22T15:24:36;6.60;99.90
13673;DHT22;6909;52.202;9.876;2023-12-22T15:27:05;6.60;99.90
13673;DHT22;6909;52.202;9.876;2023-12-22T15:29:32;6.60;99.90
13673;DHT22;6909;52.202;9.876;2023-12-22T15:31:59;6.50;99.90
13673;DHT22;6909;52.202;9.876;2023-12-22T15:34:25;6.50;99.90
13673;DHT22;6909;52.202;9.876;2023-12-22T15:36:52;6.40;99.90
13673;DHT22;6909;52.202;9.876;2023-12-22T15:39:20;6.40;99.90
13673;DHT22;6909;52.202;9.876;2023-12-22T15:41:47;6.40;99.90
13673;DHT22;6909;52.202;9.876;2023-12-22T15:44:14;6.40;99.90
13673;DHT22;6909;52.202;9.876;2023-12-22T15:46:41;6.30;99.90
13673;DHT22;6909;52.202;9.876;2023-12-22T15:49:07;6.40;99.90
13673;DHT22;6909;52.202;9.876;2023-12-22T15:51:34;6.40;99.90
13673;DHT22;6909;52.202;9.876;2023-12-22T15:54:01;6.50;99.90
13673;DHT22;6909;52.202;9.876;2023-12-22T15:56:29;6.50;99.90
13673;DHT22;6909;52.202;9.876;2023-12-22T15:58:56;6.50;99.90
13673;DHT22;6909;52.202;9.876;2023-12-22T16:01:23;6.50;99.90
13673;DHT22;6909;52.202;9.876;2023-12-22T16:03:49;6.50;99.90
13673;DHT22;6909;52.202;9.876;2023-12-22T16:06:16;6.50;99.90
13673;DHT22;6909;52.202;9.876;2023-12-22T16:08:43;6.50;99.90